createdAt,value
2019-03-09T00:02:01.062Z,6.22
2019-03-09T00:04:31.118Z,6.02
2019-03-09T00:07:01.139Z,5.94
2019-03-09T00:09:31.211Z,6.09
2019-03-09T00:12:01.232Z,6.11
2019-03-09T00:14:31.262Z,6.28
2019-03-09T00:17:01.363Z,6.12
2019-03-09T00:19:31.411Z,6.10
2019-03-09T00:22:01.457Z,6.14
2019-03-09T00:24:31.495Z,6.08
2019-03-09T00:27:01.525Z,6.17
2019-03-09T00:29:31.558Z,6.29
2019-03-09T00:32:01.594Z,6.15
2019-03-09T00:34:31.635Z,6.07
2019-03-09T00:37:01.988Z,5.94
2019-03-09T00:39:32.022Z,6.09
2019-03-09T00:42:02.043Z,6.02
2019-03-09T00:44:32.074Z,5.96
2019-03-09T00:47:02.448Z,6.11
2019-03-09T00:49:32.778Z,6.00
2019-03-09T00:52:02.802Z,6.17
2019-03-09T00:54:33.096Z,6.17
2019-03-09T00:57:03.115Z,5.94
2019-03-09T00:59:33.151Z,6.05
2019-03-09T01:02:03.467Z,6.11
2019-03-09T01:04:33.519Z,6.03
2019-03-09T01:07:03.546Z,6.09
2019-03-09T01:09:33.571Z,6.05
2019-03-09T01:12:03.595Z,6.05
2019-03-09T01:14:33.639Z,6.00
2019-03-09T01:17:03.669Z,6.13
2019-03-09T01:19:33.983Z,6.13
2019-03-09T01:22:04.033Z,6.23
2019-03-09T01:24:34.067Z,6.15
2019-03-09T01:27:04.444Z,6.11
2019-03-09T01:29:34.761Z,6.12
2019-03-09T01:32:05.081Z,6.04
2019-03-09T01:34:35.110Z,6.01
2019-03-09T01:37:05.133Z,6.04
2019-03-09T01:39:35.173Z,5.99
2019-03-09T01:42:05.466Z,5.85
2019-03-09T01:44:35.506Z,5.99
2019-03-09T01:47:05.785Z,6.04
2019-03-09T01:49:35.831Z,6.08
2019-03-09T01:52:05.885Z,6.11
2019-03-09T01:54:35.949Z,6.04
2019-03-09T01:57:05.985Z,6.09
2019-03-09T01:59:36.038Z,6.09
2019-03-09T02:02:06.083Z,6.02
2019-03-09T02:04:36.124Z,6.16
2019-03-09T02:07:06.141Z,5.96
2019-03-09T02:09:36.206Z,6.06
2019-03-09T02:12:06.550Z,6.10
2019-03-09T02:14:36.579Z,6.24
2019-03-09T02:17:06.597Z,6.07
2019-03-09T02:19:36.630Z,6.18
2019-03-09T02:22:06.653Z,6.11
2019-03-09T02:24:36.707Z,6.24
2019-03-09T02:27:06.725Z,6.20
2019-03-09T02:29:36.758Z,6.31
2019-03-09T02:32:06.808Z,6.19
2019-03-09T02:34:36.859Z,6.19
2019-03-09T02:37:06.857Z,6.15
2019-03-09T02:39:36.888Z,6.29
2019-03-09T02:42:07.266Z,6.37
2019-03-09T02:44:37.296Z,6.37
2019-03-09T02:47:07.320Z,6.43
2019-03-09T02:49:37.354Z,6.40
2019-03-09T02:52:07.386Z,6.25
2019-03-09T02:54:37.669Z,6.24
2019-03-09T02:57:07.692Z,6.48
2019-03-09T02:59:37.977Z,6.35
2019-03-09T03:02:08.009Z,6.40
2019-03-09T03:04:38.043Z,6.33
2019-03-09T03:07:08.059Z,6.33
2019-03-09T03:09:38.097Z,6.45
2019-03-09T03:12:08.107Z,6.46
2019-03-09T03:14:38.137Z,6.42
2019-03-09T03:17:08.155Z,6.48
2019-03-09T03:19:38.504Z,6.46
2019-03-09T03:22:08.610Z,6.46
2019-03-09T03:24:38.602Z,6.47
2019-03-09T03:27:08.591Z,6.47
2019-03-09T03:29:38.975Z,6.44
2019-03-09T03:32:09.022Z,6.42
2019-03-09T03:34:39.308Z,6.44
2019-03-09T03:37:09.343Z,6.38
2019-03-09T03:39:39.361Z,6.38
2019-03-09T03:42:09.662Z,6.44
2019-03-09T03:44:39.703Z,6.52
2019-03-09T03:47:10.010Z,6.55
2019-03-09T03:49:40.025Z,6.41
2019-03-09T03:52:10.349Z,6.63
2019-03-09T03:54:40.373Z,6.60
2019-03-09T03:57:10.418Z,6.56
2019-03-09T03:59:40.433Z,6.57
2019-03-09T04:02:10.465Z,6.76
2019-03-09T04:04:40.481Z,6.63
2019-03-09T04:07:10.850Z,6.75
2019-03-09T04:09:41.221Z,6.71
2019-03-09T04:12:11.551Z,6.81
2019-03-09T04:14:41.569Z,6.72
2019-03-09T04:17:11.613Z,6.78
2019-03-09T04:19:41.619Z,6.78
2019-03-09T04:22:11.648Z,6.85
2019-03-09T04:24:41.970Z,6.78
2019-03-09T04:27:12.009Z,6.81
2019-03-09T04:29:42.061Z,6.81
2019-03-09T04:32:12.103Z,6.90
2019-03-09T04:34:42.113Z,6.82
2019-03-09T04:37:12.145Z,6.74
2019-03-09T04:39:42.181Z,6.77
2019-03-09T04:42:12.199Z,6.75
2019-03-09T04:44:42.504Z,6.62
2019-03-09T04:47:12.553Z,6.76
2019-03-09T04:49:42.568Z,6.70
2019-03-09T04:52:12.598Z,6.59
2019-03-09T04:54:42.632Z,6.57
2019-03-09T04:57:12.652Z,6.53
2019-03-09T04:59:42.670Z,6.45
2019-03-09T05:02:12.706Z,6.34
2019-03-09T05:04:43.040Z,6.36
2019-03-09T05:07:13.059Z,6.24
2019-03-09T05:09:43.079Z,6.42
2019-03-09T05:12:13.386Z,6.35
2019-03-09T05:14:43.411Z,6.19
2019-03-09T05:17:13.441Z,6.37
2019-03-09T05:19:43.462Z,6.14
2019-03-09T05:22:13.495Z,6.10
2019-03-09T05:24:43.530Z,6.21
2019-03-09T05:27:13.962Z,6.03
2019-03-09T05:29:43.993Z,6.15
2019-03-09T05:32:14.018Z,6.01
2019-03-09T05:34:44.345Z,6.05
2019-03-09T05:37:14.378Z,5.91
2019-03-09T05:39:44.400Z,5.93
2019-03-09T05:42:14.823Z,5.91
2019-03-09T05:44:45.114Z,6.00
2019-03-09T05:47:15.452Z,6.02
2019-03-09T05:49:45.473Z,5.90
2019-03-09T05:52:21.423Z,5.94
2019-03-09T05:54:51.747Z,5.94
2019-03-09T05:57:21.782Z,5.74
2019-03-09T05:59:51.801Z,5.86
2019-03-09T06:02:21.836Z,5.84
2019-03-09T06:04:51.847Z,5.91
2019-03-09T06:07:21.887Z,5.91
2019-03-09T06:09:51.913Z,5.93
2019-03-09T06:12:21.955Z,5.92
2019-03-09T06:14:52.377Z,6.06
2019-03-09T06:17:22.618Z,6.06
2019-03-09T06:19:52.639Z,6.04
2019-03-09T06:22:22.677Z,5.97
2019-03-09T06:24:53.061Z,6.09
2019-03-09T06:27:23.088Z,6.15
2019-03-09T06:29:53.382Z,6.17
2019-03-09T06:32:32.626Z,6.18
2019-03-09T06:35:02.644Z,6.11
2019-03-09T06:37:32.674Z,6.11
2019-03-09T06:40:02.968Z,6.27
2019-03-09T06:45:37.438Z,6.34
2019-03-09T06:48:07.831Z,6.21
2019-03-09T06:50:37.949Z,6.40
2019-03-09T06:53:08.274Z,6.40
2019-03-09T06:55:38.309Z,6.26
2019-03-09T06:58:08.343Z,6.24
2019-03-09T07:00:38.359Z,6.42
2019-03-09T07:03:08.411Z,6.56
2019-03-09T07:05:38.430Z,6.58
2019-03-09T07:08:08.469Z,6.58
2019-03-09T07:10:38.504Z,6.74
2019-03-09T07:13:08.531Z,6.73
2019-03-09T07:15:38.546Z,6.77
2019-03-09T07:18:11.043Z,6.94
2019-03-09T07:20:41.056Z,6.94
2019-03-09T07:23:11.110Z,7.02
2019-03-09T07:25:41.144Z,7.15
2019-03-09T07:28:11.245Z,7.14
2019-03-09T07:30:41.198Z,7.19
2019-03-09T07:33:11.588Z,7.25
2019-03-09T07:35:41.608Z,7.29
2019-03-09T07:38:11.675Z,7.37
2019-03-09T07:40:41.683Z,7.37
2019-03-09T07:43:11.725Z,7.41
2019-03-09T07:45:41.742Z,7.43
2019-03-09T07:48:11.771Z,7.54
2019-03-09T07:50:42.101Z,7.56
2019-03-09T07:53:12.147Z,7.61
2019-03-09T07:55:42.438Z,7.78
2019-03-09T07:58:12.763Z,7.76
2019-03-09T08:00:42.786Z,7.76
2019-03-09T08:03:13.497Z,7.76
2019-03-09T08:05:43.441Z,7.86
2019-03-09T08:08:13.476Z,7.96
2019-03-09T08:10:43.765Z,8.00
2019-03-09T08:13:13.784Z,8.04
2019-03-09T08:15:44.094Z,8.14
2019-03-09T08:18:14.417Z,8.29
2019-03-09T08:20:44.443Z,8.29
2019-03-09T08:23:14.494Z,8.49
2019-03-09T08:25:44.502Z,8.76
2019-03-09T08:28:16.320Z,8.75
2019-03-09T08:30:44.572Z,8.73
2019-03-09T08:33:14.942Z,8.71
2019-03-09T08:35:44.988Z,8.86
2019-03-09T08:38:15.014Z,9.07
2019-03-09T08:40:45.029Z,9.03
2019-03-09T08:43:15.396Z,9.46
2019-03-09T08:45:45.725Z,9.55
2019-03-09T08:48:15.737Z,9.66
2019-03-09T08:50:46.059Z,9.41
2019-03-09T08:53:16.383Z,9.57
2019-03-09T08:55:46.409Z,9.64
2019-03-09T08:58:16.461Z,9.73
2019-03-09T09:00:46.731Z,9.89
2019-03-09T09:03:16.777Z,10.02
2019-03-09T09:05:47.069Z,10.11
2019-03-09T09:08:17.123Z,10.19
2019-03-09T09:10:47.509Z,10.23
2019-03-09T09:13:17.871Z,10.28
2019-03-09T09:15:47.853Z,10.25
2019-03-09T09:18:17.894Z,10.13
2019-03-09T09:20:47.915Z,10.08
2019-03-09T09:23:18.328Z,10.16
2019-03-09T09:25:48.617Z,10.33
2019-03-09T09:28:18.682Z,10.32
2019-03-09T09:30:48.712Z,10.51
2019-03-09T09:33:18.733Z,10.50
2019-03-09T09:35:48.760Z,10.47
2019-03-09T09:38:19.112Z,10.67
2019-03-09T09:40:49.434Z,10.63
2019-03-09T09:43:19.784Z,10.74
2019-03-09T09:45:49.778Z,10.72
2019-03-09T09:48:20.101Z,10.80
2019-03-09T09:50:50.137Z,10.96
2019-03-09T09:53:20.186Z,11.05
2019-03-09T09:55:50.223Z,10.90
2019-03-09T09:58:20.256Z,11.07
2019-03-09T10:00:50.282Z,10.97
2019-03-09T10:03:20.329Z,11.04
2019-03-09T10:05:50.342Z,11.04
2019-03-09T10:08:20.739Z,11.00
2019-03-09T10:10:50.753Z,10.95
2019-03-09T10:13:21.077Z,10.98
2019-03-09T10:15:51.111Z,10.97
2019-03-09T10:18:21.158Z,11.02
2019-03-09T10:20:51.193Z,10.99
2019-03-09T10:23:21.235Z,11.07
2019-03-09T10:25:51.544Z,11.13
2019-03-09T10:28:21.894Z,11.33
2019-03-09T10:30:51.918Z,11.33
2019-03-09T10:33:24.147Z,11.28
2019-03-09T10:35:51.967Z,11.28
2019-03-09T10:38:21.994Z,11.23
2019-03-09T10:40:52.352Z,11.19
2019-03-09T10:43:22.678Z,11.13
2019-03-09T10:45:52.700Z,11.22
2019-03-09T10:48:22.727Z,11.21
2019-03-09T10:50:53.051Z,11.17
2019-03-09T10:53:23.384Z,11.30
2019-03-09T10:55:53.690Z,11.28
2019-03-09T10:58:23.739Z,11.27
2019-03-09T11:00:53.742Z,11.28
2019-03-09T11:03:23.787Z,11.28
2019-03-09T11:05:53.807Z,11.32
2019-03-09T11:08:24.188Z,11.36
2019-03-09T11:10:54.494Z,11.49
2019-03-09T11:13:24.537Z,11.56
2019-03-09T11:15:54.553Z,11.60
2019-03-09T11:18:24.852Z,11.65
2019-03-09T11:20:54.880Z,11.68
2019-03-09T11:23:24.947Z,11.74
2019-03-09T11:25:55.196Z,11.68
2019-03-09T11:28:25.212Z,11.68
2019-03-09T11:30:55.242Z,11.54
2019-03-09T11:33:25.554Z,11.55
2019-03-09T11:35:55.598Z,11.51
2019-03-09T11:38:25.616Z,11.52
2019-03-09T11:40:58.660Z,11.52
2019-03-09T11:43:25.670Z,11.49
2019-03-09T11:45:55.704Z,11.57
2019-03-09T11:48:25.722Z,11.59
2019-03-09T11:50:56.067Z,11.74
2019-03-09T11:53:26.391Z,11.63
2019-03-09T11:55:56.714Z,11.73
2019-03-09T11:58:26.736Z,11.69
2019-03-09T12:00:57.061Z,11.65
2019-03-09T12:03:27.378Z,11.68
2019-03-09T12:05:57.410Z,11.70
2019-03-09T12:08:27.439Z,11.74
2019-03-09T12:10:57.474Z,11.81
2019-03-09T12:13:27.909Z,11.61
2019-03-09T12:15:59.257Z,11.67
2019-03-09T12:18:28.309Z,11.80
2019-03-09T12:20:58.333Z,11.80
2019-03-09T12:23:28.350Z,11.78
2019-03-09T12:25:58.665Z,11.82
2019-03-09T12:28:28.965Z,11.66
2019-03-09T12:33:38.634Z,11.67
2019-03-09T12:36:08.665Z,11.63
2019-03-09T12:38:38.689Z,11.65
2019-03-09T12:41:08.723Z,11.71
2019-03-09T12:43:38.747Z,11.72
2019-03-09T12:46:08.773Z,11.71
2019-03-09T12:48:38.815Z,11.85
2019-03-09T12:51:09.164Z,11.87
2019-03-09T12:53:39.186Z,11.91
2019-03-09T12:56:09.239Z,11.86
2019-03-09T12:58:39.272Z,11.88
2019-03-09T13:01:09.312Z,12.00
2019-03-09T13:03:39.343Z,12.04
2019-03-09T13:08:50.670Z,12.22
2019-03-09T13:11:20.735Z,12.05
2019-03-09T13:13:51.062Z,11.95
2019-03-09T13:16:21.080Z,11.94
2019-03-09T13:18:51.111Z,11.99
2019-03-09T13:21:21.150Z,12.00
2019-03-09T13:23:51.208Z,12.05
2019-03-09T13:26:21.239Z,12.08
2019-03-09T13:28:51.560Z,12.04
2019-03-09T13:31:21.622Z,12.10
2019-03-09T13:33:51.657Z,12.17
2019-03-09T13:36:21.708Z,12.15
2019-03-09T13:38:51.744Z,12.21
2019-03-09T13:41:22.149Z,12.17
2019-03-09T13:43:52.180Z,12.15
2019-03-09T13:46:22.232Z,12.10
2019-03-09T13:48:52.249Z,12.11
2019-03-09T13:51:22.285Z,12.20
2019-03-09T13:53:52.301Z,12.29
2019-03-09T13:56:22.356Z,12.19
2019-03-09T13:58:52.664Z,12.18
2019-03-09T14:01:22.980Z,12.07
2019-03-09T14:03:53.007Z,12.09
2019-03-09T14:06:23.319Z,11.99
2019-03-09T14:08:53.345Z,11.98
2019-03-09T14:11:23.397Z,12.08
2019-03-09T14:13:53.842Z,11.96
2019-03-09T14:16:23.814Z,11.93
2019-03-09T14:18:54.110Z,12.05
2019-03-09T14:21:24.149Z,12.01
2019-03-09T14:23:54.165Z,12.01
2019-03-09T14:26:24.201Z,12.00
2019-03-09T14:28:54.229Z,12.11
2019-03-09T14:31:24.605Z,12.27
2019-03-09T14:33:54.632Z,12.31
2019-03-09T14:36:24.674Z,12.19
2019-03-09T14:38:54.693Z,12.11
2019-03-09T14:41:25.053Z,12.21
2019-03-09T14:43:54.965Z,12.19
2019-03-09T14:46:25.035Z,12.09
2019-03-09T14:48:55.364Z,11.97
2019-03-09T14:51:25.750Z,11.90
2019-03-09T14:53:55.791Z,11.85
2019-03-09T14:56:25.834Z,12.02
2019-03-09T14:58:56.316Z,11.96
2019-03-09T15:01:26.329Z,11.84
2019-03-09T15:03:56.648Z,11.72
2019-03-09T15:06:26.682Z,11.63
2019-03-09T15:08:56.988Z,11.61
2019-03-09T15:11:27.454Z,11.58
2019-03-09T15:13:57.478Z,11.52
2019-03-09T15:16:27.534Z,11.48
2019-03-09T15:18:57.871Z,11.52
2019-03-09T15:21:27.911Z,11.50
2019-03-09T15:23:58.213Z,11.28
2019-03-09T15:26:28.252Z,11.18
2019-03-09T15:28:58.281Z,11.13
2019-03-09T15:31:28.324Z,11.16
2019-03-09T15:33:58.351Z,11.20
2019-03-09T15:36:28.694Z,11.16
2019-03-09T15:38:59.012Z,11.22
2019-03-09T15:41:29.052Z,11.29
2019-03-09T15:43:59.138Z,11.36
2019-03-09T15:46:29.471Z,11.16
2019-03-09T15:48:59.512Z,11.35
2019-03-09T15:51:29.812Z,11.25
2019-03-09T15:53:59.851Z,11.28
2019-03-09T15:56:30.152Z,11.27
2019-03-09T15:59:00.219Z,11.30
2019-03-09T16:01:30.251Z,11.15
2019-03-09T16:04:00.325Z,11.12
2019-03-09T16:06:30.354Z,10.99
2019-03-09T16:09:00.741Z,10.96
2019-03-09T16:11:31.065Z,11.12
2019-03-09T16:14:01.374Z,10.96
2019-03-09T16:16:31.419Z,10.86
2019-03-09T16:19:01.447Z,10.74
2019-03-09T16:21:31.848Z,10.69
2019-03-09T16:24:01.898Z,10.57
2019-03-09T16:26:31.949Z,10.56
2019-03-09T16:29:01.954Z,10.38
2019-03-09T16:31:31.989Z,10.08
2019-03-09T16:34:02.057Z,10.21
2019-03-09T16:36:32.446Z,10.09
2019-03-09T16:39:02.496Z,10.14
2019-03-09T16:41:33.288Z,10.14
2019-03-09T16:44:02.585Z,9.89
2019-03-09T16:46:32.663Z,9.98
2019-03-09T16:49:02.951Z,9.91
2019-03-09T16:51:32.992Z,9.75
2019-03-09T16:54:03.299Z,9.66
2019-03-09T16:56:33.667Z,9.51
2019-03-09T16:59:03.679Z,9.69
2019-03-09T17:01:33.705Z,9.59
2019-03-09T17:04:04.060Z,9.59
2019-03-09T17:06:34.391Z,9.63
2019-03-09T17:09:04.801Z,9.46
2019-03-09T17:11:35.116Z,9.29
2019-03-09T17:14:05.171Z,9.26
2019-03-09T17:16:35.238Z,9.30
2019-03-09T17:19:05.261Z,9.33
2019-03-09T17:21:35.361Z,9.23
2019-03-09T17:24:05.423Z,9.06
2019-03-09T17:26:35.743Z,9.15
2019-03-09T17:29:05.775Z,9.05
2019-03-09T17:31:35.827Z,9.02
2019-03-09T17:34:05.877Z,9.14
2019-03-09T17:36:36.199Z,9.17
2019-03-09T17:39:06.523Z,9.25
2019-03-09T17:41:36.560Z,9.19
2019-03-09T17:44:06.588Z,9.17
2019-03-09T17:46:36.966Z,9.30
2019-03-09T17:49:07.049Z,9.19
2019-03-09T17:51:37.069Z,9.26
2019-03-09T17:54:07.112Z,9.22
2019-03-09T17:56:37.139Z,9.20
2019-03-09T17:59:07.161Z,9.26
2019-03-09T18:01:37.592Z,9.24
2019-03-09T18:04:07.508Z,9.26
2019-03-09T18:06:37.533Z,9.25
2019-03-09T18:09:07.636Z,8.76
2019-03-09T18:11:37.767Z,6.98
2019-03-09T18:14:07.972Z,6.28
2019-03-09T18:16:38.292Z,6.09
2019-03-09T18:19:08.328Z,6.03
2019-03-09T18:21:38.715Z,6.21
2019-03-09T18:24:08.747Z,6.24
2019-03-09T18:26:39.088Z,6.05
2019-03-09T18:29:09.489Z,6.32
2019-03-09T18:31:39.821Z,6.40
2019-03-09T18:34:09.855Z,6.45
2019-03-09T18:36:40.152Z,6.35
2019-03-09T18:39:10.183Z,6.47
2019-03-09T18:41:40.204Z,6.61
2019-03-09T18:44:10.238Z,6.61
2019-03-09T18:46:40.640Z,6.75
2019-03-09T18:49:10.669Z,6.74
2019-03-09T18:51:40.679Z,6.77
2019-03-09T18:54:11.079Z,6.60
2019-03-09T18:56:41.111Z,6.64
2019-03-09T18:59:11.152Z,6.69
2019-03-09T19:01:41.181Z,6.79
2019-03-09T19:04:11.230Z,6.77
2019-03-09T19:06:41.558Z,6.76
2019-03-09T19:09:11.894Z,6.73
2019-03-09T19:11:42.200Z,6.78
2019-03-09T19:14:12.236Z,6.84
2019-03-09T19:16:42.540Z,6.81
2019-03-09T19:19:12.563Z,6.81
2019-03-09T19:21:42.869Z,6.76
2019-03-09T19:24:12.903Z,6.87
2019-03-09T19:26:42.919Z,6.87
2019-03-09T19:29:12.953Z,6.75
2019-03-09T19:31:42.977Z,6.79
2019-03-09T19:34:13.381Z,6.73
2019-03-09T19:39:22.775Z,6.77
2019-03-09T19:41:53.153Z,6.65
2019-03-09T19:44:23.175Z,6.60
2019-03-09T19:46:53.592Z,6.63
2019-03-09T19:49:23.899Z,6.63
2019-03-09T19:51:53.931Z,6.49
2019-03-09T19:54:23.968Z,6.54
2019-03-09T19:56:54.000Z,6.59
2019-03-09T19:59:24.040Z,6.48
2019-03-09T20:01:54.398Z,6.36
2019-03-09T20:04:24.732Z,6.42
2019-03-09T20:06:54.768Z,6.39
2019-03-09T20:09:24.825Z,6.53
2019-03-09T20:11:54.852Z,6.57
2019-03-09T20:14:24.888Z,6.47
2019-03-09T20:16:55.203Z,6.39
2019-03-09T20:19:25.243Z,6.39
2019-03-09T20:21:55.274Z,6.51
2019-03-09T20:24:25.303Z,6.41
2019-03-09T20:26:55.320Z,6.44
2019-03-09T20:29:25.379Z,6.33
2019-03-09T20:31:55.414Z,6.27
2019-03-09T20:34:25.447Z,6.39
2019-03-09T20:39:35.222Z,6.37
2019-03-09T20:42:05.494Z,6.37
2019-03-09T20:44:35.814Z,6.15
2019-03-09T20:47:05.831Z,6.20
2019-03-09T20:49:35.879Z,6.24
2019-03-09T20:52:05.906Z,5.97
2019-03-09T20:54:35.977Z,6.22
2019-03-09T20:57:06.003Z,6.29
2019-03-09T20:59:36.035Z,6.16
2019-03-09T21:02:06.060Z,6.10
2019-03-09T21:04:36.476Z,6.07
2019-03-09T21:07:06.496Z,5.98
2019-03-09T21:09:36.908Z,5.98
2019-03-09T21:12:07.206Z,6.00
2019-03-09T21:14:37.246Z,5.93
2019-03-09T21:17:07.300Z,6.04
2019-03-09T21:19:37.312Z,6.07
2019-03-09T21:22:07.693Z,5.88
2019-03-09T21:24:37.720Z,5.95
2019-03-09T21:27:08.026Z,5.95
2019-03-09T21:29:38.344Z,6.01
2019-03-09T21:32:08.358Z,6.01
2019-03-09T21:34:38.438Z,6.13
2019-03-09T21:37:08.450Z,6.02
2019-03-09T21:39:38.506Z,6.09
2019-03-09T21:42:08.824Z,5.88
2019-03-09T21:44:39.095Z,5.88
2019-03-09T21:47:09.469Z,5.89
2019-03-09T21:49:39.500Z,5.89
2019-03-09T21:52:09.809Z,5.89
2019-03-09T21:54:39.846Z,5.71
2019-03-09T21:57:10.150Z,5.72
2019-03-09T21:59:40.469Z,5.57
2019-03-09T22:02:10.804Z,5.69
2019-03-09T22:04:40.844Z,5.69
2019-03-09T22:07:10.857Z,5.68
2019-03-09T22:09:40.898Z,5.68
2019-03-09T22:12:10.907Z,5.62
2019-03-09T22:14:40.997Z,5.63
2019-03-09T22:20:33.031Z,5.94
2019-03-09T22:23:03.077Z,5.96
2019-03-09T22:25:33.366Z,5.87
2019-03-09T22:28:03.394Z,5.88
2019-03-09T22:30:33.700Z,5.80
2019-03-09T22:33:04.672Z,5.72
2019-03-09T22:35:33.806Z,5.70
2019-03-09T22:38:03.824Z,5.82
2019-03-09T22:40:33.882Z,5.82
2019-03-09T22:43:04.188Z,5.75
2019-03-09T22:45:34.225Z,5.67
2019-03-09T22:48:04.263Z,5.69
2019-03-09T22:50:34.289Z,5.69
2019-03-09T22:53:04.308Z,5.62
2019-03-09T22:55:34.713Z,5.64
2019-03-09T22:58:05.165Z,5.52
2019-03-09T23:00:35.138Z,5.49
2019-03-09T23:03:05.160Z,5.59
2019-03-09T23:05:35.222Z,5.50
2019-03-09T23:08:05.250Z,5.50
2019-03-09T23:10:35.288Z,5.41
2019-03-09T23:13:05.557Z,5.41
2019-03-09T23:15:35.913Z,5.36
2019-03-09T23:18:05.949Z,5.31
2019-03-09T23:20:36.261Z,5.21
2019-03-09T23:23:06.576Z,5.21
2019-03-09T23:25:36.896Z,5.21
2019-03-09T23:28:07.225Z,5.34
2019-03-09T23:30:37.507Z,5.36
2019-03-09T23:33:07.533Z,5.41
2019-03-09T23:35:37.575Z,5.39
2019-03-09T23:38:08.010Z,5.39
2019-03-09T23:40:37.937Z,5.39
2019-03-09T23:43:08.246Z,5.43
2019-03-09T23:45:38.467Z,5.61
2019-03-09T23:48:08.482Z,5.56
2019-03-09T23:50:38.589Z,5.59
2019-03-09T23:53:08.611Z,5.62
2019-03-09T23:55:38.651Z,5.57
2019-03-09T23:58:08.679Z,5.61
